sensor_id;sensor_type;location;lat;lon;timestamp;pressure;altitude;pressure_sealevel;temperature;humidity
61906;BME280;47863;55.766;37.672;2023-04-05T00:01:26;100118.31;;;7.25;65.28
61906;BME280;47863;55.766;37.672;2023-04-05T00:03:57;100083.44;;;7.07;65.63
61906;BME280;47863;55.766;37.672;2023-04-05T00:06:24;100118.44;;;7.24;65.39
61906;BME280;47863;55.766;37.672;2023-04-05T00:09:03;100113.34;;;7.21;65.46
61906;BME280;47863;55.766;37.672;2023-04-05T00:11:32;100092.50;;;7.05;65.45
61906;BME280;47863;55.766;37.672;2023-04-05T00:13:59;100073.81;;;6.95;65.36
61906;BME280;47863;55.766;37.672;2023-04-05T00:16:26;100113.19;;;7.12;65.76
61906;BME280;47863;55.766;37.672;2023-04-05T00:18:52;100112.47;;;7.10;65.79
61906;BME280;47863;55.766;37.672;2023-04-05T00:21:19;100114.53;;;7.07;65.52
61906;BME280;47863;55.766;37.672;2023-04-05T00:23:52;100119.16;;;7.05;65.57
61906;BME280;47863;55.766;37.672;2023-04-05T00:26:18;100119.44;;;7.02;66.12
61906;BME280;47863;55.766;37.672;2023-04-05T00:28:48;100107.28;;;6.88;66.60
61906;BME280;47863;55.766;37.672;2023-04-05T00:31:14;100113.03;;;6.93;66.68
61906;BME280;47863;55.766;37.672;2023-04-05T00:33:39;100105.47;;;6.88;66.61
61906;BME280;47863;55.766;37.672;2023-04-05T00:36:08;100107.53;;;6.85;66.90
61906;BME280;47863;55.766;37.672;2023-04-05T00:38:35;100109.47;;;6.83;66.70
61906;BME280;47863;55.766;37.672;2023-04-05T00:41:01;100116.75;;;6.81;66.85
61906;BME280;47863;55.766;37.672;2023-04-05T00:43:26;100104.22;;;6.71;66.79
61906;BME280;47863;55.766;37.672;2023-04-05T00:45:52;100092.78;;;6.60;66.90
61906;BME280;47863;55.766;37.672;2023-04-05T00:48:17;100077.97;;;6.46;67.25
61906;BME280;47863;55.766;37.672;2023-04-05T00:50:45;100116.06;;;6.67;67.15
61906;BME280;47863;55.766;37.672;2023-04-05T00:53:11;100120.13;;;6.62;67.25
61906;BME280;47863;55.766;37.672;2023-04-05T00:55:37;100125.56;;;6.60;67.40
61906;BME280;47863;55.766;37.672;2023-04-05T00:58:03;100127.63;;;6.57;67.25
61906;BME280;47863;55.766;37.672;2023-04-05T01:00:28;100095.53;;;6.37;67.30
61906;BME280;47863;55.766;37.672;2023-04-05T01:02:57;100124.38;;;6.53;67.58
61906;BME280;47863;55.766;37.672;2023-04-05T01:08:33;100130.94;;;6.49;67.67
61906;BME280;47863;55.766;37.672;2023-04-05T01:11:03;100133.97;;;6.44;67.42
61906;BME280;47863;55.766;37.672;2023-04-05T01:13:30;100129.88;;;6.40;67.54
61906;BME280;47863;55.766;37.672;2023-04-05T01:15:56;100125.06;;;6.34;67.84
61906;BME280;47863;55.766;37.672;2023-04-05T01:18:21;100109.38;;;6.20;67.81
61906;BME280;47863;55.766;37.672;2023-04-05T01:21:17;100127.25;;;6.29;69.69
61906;BME280;47863;55.766;37.672;2023-04-05T01:24:28;100126.41;;;6.28;70.75
61906;BME280;47863;55.766;37.672;2023-04-05T01:27:21;100129.44;;;6.24;68.63
61906;BME280;47863;55.766;37.672;2023-04-05T01:30:00;100124.50;;;6.19;68.25
61906;BME280;47863;55.766;37.672;2023-04-05T01:32:40;100125.72;;;6.15;68.66
61906;BME280;47863;55.766;37.672;2023-04-05T01:38:06;100129.47;;;6.01;68.83
61906;BME280;47863;55.766;37.672;2023-04-05T01:40:35;100130.69;;;5.97;68.99
61906;BME280;47863;55.766;37.672;2023-04-05T01:43:11;100113.06;;;5.85;69.74
61906;BME280;47863;55.766;37.672;2023-04-05T01:45:37;100138.41;;;5.89;69.17
61906;BME280;47863;55.766;37.672;2023-04-05T01:48:03;100113.78;;;5.75;69.34
61906;BME280;47863;55.766;37.672;2023-04-05T01:50:28;100139.38;;;5.88;69.34
61906;BME280;47863;55.766;37.672;2023-04-05T01:52:54;100136.09;;;5.84;69.23
61906;BME280;47863;55.766;37.672;2023-04-05T01:55:19;100132.63;;;5.84;70.26
61906;BME280;47863;55.766;37.672;2023-04-05T01:57:45;100131.06;;;5.81;69.71
61906;BME280;47863;55.766;37.672;2023-04-05T02:00:11;100120.41;;;5.70;69.55
61906;BME280;47863;55.766;37.672;2023-04-05T02:02:37;100138.41;;;5.78;70.24
61906;BME280;47863;55.766;37.672;2023-04-05T02:05:03;100128.50;;;5.68;69.57
61906;BME280;47863;55.766;37.672;2023-04-05T02:07:28;100143.50;;;5.69;69.35
61906;BME280;47863;55.766;37.672;2023-04-05T02:09:54;100113.31;;;5.48;69.78
61906;BME280;47863;55.766;37.672;2023-04-05T02:12:20;100140.59;;;5.61;69.13
61906;BME280;47863;55.766;37.672;2023-04-05T02:14:47;100144.31;;;5.59;69.51
61906;BME280;47863;55.766;37.672;2023-04-05T02:17:12;100147.97;;;5.57;69.21
61906;BME280;47863;55.766;37.672;2023-04-05T02:19:38;100133.22;;;5.42;69.59
61906;BME280;47863;55.766;37.672;2023-04-05T02:22:10;100158.22;;;5.51;69.88
61906;BME280;47863;55.766;37.672;2023-04-05T02:24:36;100153.16;;;5.48;69.79
61906;BME280;47863;55.766;37.672;2023-04-05T02:27:02;100155.78;;;5.36;70.73
61906;BME280;47863;55.766;37.672;2023-04-05T02:29:28;100166.53;;;5.35;70.21
61906;BME280;47863;55.766;37.672;2023-04-05T02:31:54;100135.47;;;5.13;71.24
61906;BME280;47863;55.766;37.672;2023-04-05T02:34:19;100125.31;;;5.07;71.19
61906;BME280;47863;55.766;37.672;2023-04-05T02:36:50;100164.25;;;5.30;71.32
61906;BME280;47863;55.766;37.672;2023-04-05T02:39:16;100149.47;;;5.15;71.45
61906;BME280;47863;55.766;37.672;2023-04-05T02:41:42;100169.81;;;5.27;70.77
61906;BME280;47863;55.766;37.672;2023-04-05T02:44:08;100158.06;;;5.19;71.05
61906;BME280;47863;55.766;37.672;2023-04-05T02:46:33;100178.59;;;5.28;71.57
61906;BME280;47863;55.766;37.672;2023-04-05T02:48:59;100170.13;;;5.23;71.89
61906;BME280;47863;55.766;37.672;2023-04-05T02:51:25;100155.97;;;5.11;71.62
61906;BME280;47863;55.766;37.672;2023-04-05T02:53:51;100166.13;;;5.06;71.86
61906;BME280;47863;55.766;37.672;2023-04-05T02:56:17;100150.16;;;4.94;71.76
61906;BME280;47863;55.766;37.672;2023-04-05T02:58:43;100156.88;;;4.87;71.97
61906;BME280;47863;55.766;37.672;2023-04-05T03:01:10;100167.53;;;4.99;71.96
61906;BME280;47863;55.766;37.672;2023-04-05T03:03:36;100188.69;;;5.00;72.40
61906;BME280;47863;55.766;37.672;2023-04-05T03:06:04;100192.38;;;4.97;72.27
61906;BME280;47863;55.766;37.672;2023-04-05T03:08:37;100185.50;;;4.95;72.29
61906;BME280;47863;55.766;37.672;2023-04-05T03:11:06;100193.47;;;4.95;71.95
61906;BME280;47863;55.766;37.672;2023-04-05T03:13:32;100141.63;;;4.67;72.18
61906;BME280;47863;55.766;37.672;2023-04-05T03:15:58;100170.41;;;4.84;72.21
61906;BME280;47863;55.766;37.672;2023-04-05T03:18:23;100178.84;;;4.89;72.57
61906;BME280;47863;55.766;37.672;2023-04-05T03:20:51;100190.59;;;4.98;72.90
61906;BME280;47863;55.766;37.672;2023-04-05T03:23:26;100195.03;;;4.97;72.55
61906;BME280;47863;55.766;37.672;2023-04-05T03:25:57;100187.94;;;4.98;72.14
61906;BME280;47863;55.766;37.672;2023-04-05T03:28:23;100197.47;;;5.01;72.25
61906;BME280;47863;55.766;37.672;2023-04-05T03:30:49;100200.13;;;5.01;72.35
61906;BME280;47863;55.766;37.672;2023-04-05T03:33:15;100174.72;;;4.85;72.76
61906;BME280;47863;55.766;37.672;2023-04-05T03:35:40;100213.34;;;5.13;72.04
61906;BME280;47863;55.766;37.672;2023-04-05T03:38:06;100185.31;;;5.09;71.57
61906;BME280;47863;55.766;37.672;2023-04-05T03:40:31;100207.00;;;5.39;71.72
61906;BME280;47863;55.766;37.672;2023-04-05T03:42:57;100213.28;;;5.49;72.02
61906;BME280;47863;55.766;37.672;2023-04-05T03:45:23;100200.94;;;5.36;72.34
61906;BME280;47863;55.766;37.672;2023-04-05T03:47:49;100195.63;;;5.36;71.64
61906;BME280;47863;55.766;37.672;2023-04-05T03:50:15;100219.09;;;5.54;72.18
61906;BME280;47863;55.766;37.672;2023-04-05T03:52:40;100222.84;;;5.63;72.04
61906;BME280;47863;55.766;37.672;2023-04-05T03:55:06;100214.44;;;5.69;71.58
61906;BME280;47863;55.766;37.672;2023-04-05T03:57:33;100230.88;;;5.85;71.33
61906;BME280;47863;55.766;37.672;2023-04-05T03:59:58;100227.22;;;5.86;71.42
61906;BME280;47863;55.766;37.672;2023-04-05T04:02:24;100190.38;;;5.82;70.86
61906;BME280;47863;55.766;37.672;2023-04-05T04:04:49;100234.88;;;6.13;70.62
61906;BME280;47863;55.766;37.672;2023-04-05T04:07:15;100234.16;;;6.23;70.88
61906;BME280;47863;55.766;37.672;2023-04-05T04:09:41;100195.72;;;6.04;70.85
61906;BME280;47863;55.766;37.672;2023-04-05T04:12:07;100242.34;;;6.42;70.85
61906;BME280;47863;55.766;37.672;2023-04-05T04:14:35;100244.13;;;6.53;70.95
61906;BME280;47863;55.766;37.672;2023-04-05T04:17:01;100225.41;;;6.54;70.97
61906;BME280;47863;55.766;37.672;2023-04-05T04:19:27;100216.56;;;6.54;70.72
61906;BME280;47863;55.766;37.672;2023-04-05T04:21:53;100220.56;;;6.60;70.76
61906;BME280;47863;55.766;37.672;2023-04-05T04:24:20;100245.16;;;6.84;71.00
61906;BME280;47863;55.766;37.672;2023-04-05T04:26:49;100253.13;;;6.95;70.66
61906;BME280;47863;55.766;37.672;2023-04-05T04:29:15;100252.09;;;7.08;71.05
61906;BME280;47863;55.766;37.672;2023-04-05T04:31:42;100252.50;;;7.24;70.31
61906;BME280;47863;55.766;37.672;2023-04-05T04:34:14;100240.38;;;7.31;69.87
61906;BME280;47863;55.766;37.672;2023-04-05T04:36:42;100239.19;;;7.45;69.39
61906;BME280;47863;55.766;37.672;2023-04-05T04:39:10;100242.56;;;7.68;69.32
61906;BME280;47863;55.766;37.672;2023-04-05T04:41:38;100226.22;;;7.83;68.96
61906;BME280;47863;55.766;37.672;2023-04-05T04:44:11;100243.22;;;8.12;69.00
61906;BME280;47863;55.766;37.672;2023-04-05T04:46:39;100264.16;;;8.48;68.92
61906;BME280;47863;55.766;37.672;2023-04-05T04:49:08;100229.59;;;8.46;68.35
61906;BME280;47863;55.766;37.672;2023-04-05T04:51:38;100258.03;;;8.77;68.59
61906;BME280;47863;55.766;37.672;2023-04-05T04:54:04;100266.50;;;8.91;68.29
61906;BME280;47863;55.766;37.672;2023-04-05T04:56:30;100265.38;;;9.13;68.10
61906;BME280;47863;55.766;37.672;2023-04-05T04:58:56;100260.75;;;9.25;67.88
61906;BME280;47863;55.766;37.672;2023-04-05T05:01:22;100262.72;;;9.23;67.59
61906;BME280;47863;55.766;37.672;2023-04-05T05:03:49;100261.03;;;9.12;67.80
61906;BME280;47863;55.766;37.672;2023-04-05T05:06:16;100274.53;;;9.30;67.85
61906;BME280;47863;55.766;37.672;2023-04-05T05:08:44;100264.94;;;9.28;67.82
61906;BME280;47863;55.766;37.672;2023-04-05T05:11:11;100270.88;;;9.31;67.83
61906;BME280;47863;55.766;37.672;2023-04-05T05:13:37;100280.72;;;9.31;67.82
61906;BME280;47863;55.766;37.672;2023-04-05T05:16:02;100283.25;;;9.32;67.60
61906;BME280;47863;55.766;37.672;2023-04-05T05:18:29;100276.66;;;9.37;67.64
61906;BME280;47863;55.766;37.672;2023-04-05T05:20:55;100285.22;;;9.50;67.37
61906;BME280;47863;55.766;37.672;2023-04-05T05:23:21;100288.16;;;9.66;67.17
61906;BME280;47863;55.766;37.672;2023-04-05T05:25:46;100278.00;;;9.80;67.02
61906;BME280;47863;55.766;37.672;2023-04-05T05:28:12;100274.13;;;10.02;66.86
61906;BME280;47863;55.766;37.672;2023-04-05T05:30:38;100287.66;;;10.47;66.39
61906;BME280;47863;55.766;37.672;2023-04-05T05:33:03;100271.66;;;10.83;65.94
61906;BME280;47863;55.766;37.672;2023-04-05T05:35:29;100286.72;;;11.30;65.23
61906;BME280;47863;55.766;37.672;2023-04-05T05:37:54;100285.59;;;11.59;65.28
61906;BME280;47863;55.766;37.672;2023-04-05T05:40:20;100255.09;;;11.60;65.06
61906;BME280;47863;55.766;37.672;2023-04-05T05:42:45;100291.25;;;11.92;64.91
61906;BME280;47863;55.766;37.672;2023-04-05T05:45:11;100292.56;;;12.14;63.99
61906;BME280;47863;55.766;37.672;2023-04-05T05:47:37;100250.41;;;12.14;63.87
61906;BME280;47863;55.766;37.672;2023-04-05T05:50:03;100260.00;;;12.51;63.77
61906;BME280;47863;55.766;37.672;2023-04-05T05:52:29;100286.88;;;13.02;63.54
61906;BME280;47863;55.766;37.672;2023-04-05T05:54:54;100294.16;;;13.42;62.82
61906;BME280;47863;55.766;37.672;2023-04-05T05:57:20;100298.38;;;13.69;62.66
61906;BME280;47863;55.766;37.672;2023-04-05T05:59:46;100267.09;;;13.77;62.52
61906;BME280;47863;55.766;37.672;2023-04-05T06:02:11;100303.38;;;14.22;61.97
61906;BME280;47863;55.766;37.672;2023-04-05T06:04:37;100303.63;;;14.52;61.79
61906;BME280;47863;55.766;37.672;2023-04-05T06:07:02;100302.16;;;14.80;61.10
61906;BME280;47863;55.766;37.672;2023-04-05T06:09:28;100298.91;;;15.16;60.66
61906;BME280;47863;55.766;37.672;2023-04-05T06:11:54;100280.09;;;15.31;60.11
61906;BME280;47863;55.766;37.672;2023-04-05T06:14:21;100304.81;;;15.66;59.37
61906;BME280;47863;55.766;37.672;2023-04-05T06:16:46;100295.09;;;15.80;59.59
61906;BME280;47863;55.766;37.672;2023-04-05T06:19:13;100290.84;;;16.00;58.49
61906;BME280;47863;55.766;37.672;2023-04-05T06:21:38;100308.28;;;16.57;57.98
61906;BME280;47863;55.766;37.672;2023-04-05T06:24:04;100300.81;;;16.89;57.47
61906;BME280;47863;55.766;37.672;2023-04-05T06:26:30;100298.53;;;17.08;56.43
61906;BME280;47863;55.766;37.672;2023-04-05T06:28:55;100301.31;;;17.14;56.35
61906;BME280;47863;55.766;37.672;2023-04-05T06:31:31;100304.69;;;17.01;54.62
61906;BME280;47863;55.766;37.672;2023-04-05T06:33:57;100282.72;;;16.75;55.93
61906;BME280;47863;55.766;37.672;2023-04-05T06:36:22;100311.91;;;16.79;55.55
61906;BME280;47863;55.766;37.672;2023-04-05T06:38:49;100312.38;;;16.68;54.64
61906;BME280;47863;55.766;37.672;2023-04-05T06:41:15;100316.66;;;16.77;55.24
61906;BME280;47863;55.766;37.672;2023-04-05T06:43:41;100304.03;;;17.14;54.31
61906;BME280;47863;55.766;37.672;2023-04-05T06:46:06;100295.69;;;17.59;53.75
61906;BME280;47863;55.766;37.672;2023-04-05T06:48:35;100290.44;;;18.00;53.26
61906;BME280;47863;55.766;37.672;2023-04-05T06:51:02;100321.75;;;18.66;52.04
61906;BME280;47863;55.766;37.672;2023-04-05T06:53:28;100310.69;;;19.16;52.00
61906;BME280;47863;55.766;37.672;2023-04-05T06:55:55;100310.75;;;19.62;51.20
61906;BME280;47863;55.766;37.672;2023-04-05T06:58:21;100293.41;;;20.04;50.80
61906;BME280;47863;55.766;37.672;2023-04-05T07:00:48;100304.19;;;20.57;50.81
61906;BME280;47863;55.766;37.672;2023-04-05T07:03:14;100313.25;;;21.03;49.43
61906;BME280;47863;55.766;37.672;2023-04-05T07:05:41;100301.72;;;21.39;48.94
61906;BME280;47863;55.766;37.672;2023-04-05T07:08:14;100308.97;;;21.84;48.29
61906;BME280;47863;55.766;37.672;2023-04-05T07:10:39;100304.50;;;22.40;47.25
61906;BME280;47863;55.766;37.672;2023-04-05T07:13:05;100287.53;;;22.86;46.29
61906;BME280;47863;55.766;37.672;2023-04-05T07:15:31;100308.38;;;23.60;45.09
61906;BME280;47863;55.766;37.672;2023-04-05T07:17:56;100283.63;;;23.97;44.11
61906;BME280;47863;55.766;37.672;2023-04-05T07:20:22;100313.38;;;24.52;44.17
61906;BME280;47863;55.766;37.672;2023-04-05T07:22:47;100313.91;;;24.78;43.36
61906;BME280;47863;55.766;37.672;2023-04-05T07:25:13;100309.19;;;25.02;43.50
61906;BME280;47863;55.766;37.672;2023-04-05T07:27:38;100264.25;;;25.03;42.64
61906;BME280;47863;55.766;37.672;2023-04-05T07:30:05;100308.16;;;25.48;42.11
61906;BME280;47863;55.766;37.672;2023-04-05T07:32:33;100304.88;;;25.63;41.68
61906;BME280;47863;55.766;37.672;2023-04-05T07:34:58;100318.69;;;25.85;41.31
61906;BME280;47863;55.766;37.672;2023-04-05T07:37:24;100311.56;;;26.01;40.79
61906;BME280;47863;55.766;37.672;2023-04-05T07:39:51;100306.56;;;26.37;40.04
61906;BME280;47863;55.766;37.672;2023-04-05T07:42:17;100325.53;;;26.78;39.68
61906;BME280;47863;55.766;37.672;2023-04-05T07:44:46;100303.13;;;26.86;39.16
61906;BME280;47863;55.766;37.672;2023-04-05T07:47:11;100333.84;;;27.05;39.21
61906;BME280;47863;55.766;37.672;2023-04-05T07:49:37;100320.66;;;26.80;39.67
61906;BME280;47863;55.766;37.672;2023-04-05T07:52:03;100315.16;;;26.41;39.35
61906;BME280;47863;55.766;37.672;2023-04-05T07:54:31;100317.78;;;25.97;38.94
61906;BME280;47863;55.766;37.672;2023-04-05T07:56:58;100326.22;;;25.78;38.78
61906;BME280;47863;55.766;37.672;2023-04-05T07:59:23;100319.50;;;25.86;38.55
61906;BME280;47863;55.766;37.672;2023-04-05T08:01:49;100300.41;;;25.91;37.09
61906;BME280;47863;55.766;37.672;2023-04-05T08:04:14;100319.44;;;25.98;36.74
61906;BME280;47863;55.766;37.672;2023-04-05T08:06:40;100327.19;;;26.01;36.20
61906;BME280;47863;55.766;37.672;2023-04-05T08:09:06;100322.59;;;26.23;35.47
61906;BME280;47863;55.766;37.672;2023-04-05T08:11:33;100324.59;;;26.67;35.48
61906;BME280;47863;55.766;37.672;2023-04-05T08:13:59;100329.44;;;27.04;34.94
61906;BME280;47863;55.766;37.672;2023-04-05T08:16:25;100322.50;;;27.23;34.42
61906;BME280;47863;55.766;37.672;2023-04-05T08:18:50;100294.59;;;27.09;34.08
61906;BME280;47863;55.766;37.672;2023-04-05T08:21:16;100333.66;;;27.12;34.28
61906;BME280;47863;55.766;37.672;2023-04-05T08:23:41;100307.16;;;26.78;34.79
61906;BME280;47863;55.766;37.672;2023-04-05T08:26:07;100316.41;;;26.72;34.84
61906;BME280;47863;55.766;37.672;2023-04-05T08:28:33;100332.50;;;26.85;34.76
61906;BME280;47863;55.766;37.672;2023-04-05T08:30:58;100333.66;;;26.89;34.52
61906;BME280;47863;55.766;37.672;2023-04-05T08:33:25;100313.84;;;26.65;34.55
61906;BME280;47863;55.766;37.672;2023-04-05T08:35:52;100321.94;;;26.99;33.79
61906;BME280;47863;55.766;37.672;2023-04-05T08:38:18;100305.81;;;27.57;33.25
61906;BME280;47863;55.766;37.672;2023-04-05T08:40:45;100340.22;;;28.67;32.30
61906;BME280;47863;55.766;37.672;2023-04-05T08:45:49;100339.75;;;29.95;29.59
61906;BME280;47863;55.766;37.672;2023-04-05T08:48:16;100334.75;;;30.22;30.36
61906;BME280;47863;55.766;37.672;2023-04-05T08:50:49;100315.16;;;30.14;30.25
61906;BME280;47863;55.766;37.672;2023-04-05T08:53:16;100330.34;;;30.01;30.31
61906;BME280;47863;55.766;37.672;2023-04-05T08:55:41;100327.59;;;29.91;30.27
61906;BME280;47863;55.766;37.672;2023-04-05T08:58:12;100324.03;;;29.90;28.12
61906;BME280;47863;55.766;37.672;2023-04-05T09:00:38;100329.28;;;29.76;30.21
61906;BME280;47863;55.766;37.672;2023-04-05T09:03:05;100326.72;;;29.39;29.40
61906;BME280;47863;55.766;37.672;2023-04-05T09:05:31;100325.94;;;28.80;29.94
61906;BME280;47863;55.766;37.672;2023-04-05T09:07:58;100329.41;;;28.13;30.84
61906;BME280;47863;55.766;37.672;2023-04-05T09:10:26;100308.00;;;27.28;31.37
61906;BME280;47863;55.766;37.672;2023-04-05T09:12:52;100324.41;;;26.96;31.66
61906;BME280;47863;55.766;37.672;2023-04-05T09:15:17;100316.28;;;26.84;31.24
61906;BME280;47863;55.766;37.672;2023-04-05T09:17:46;100335.50;;;27.06;30.55
61906;BME280;47863;55.766;37.672;2023-04-05T09:20:12;100324.19;;;27.02;30.72
61906;BME280;47863;55.766;37.672;2023-04-05T09:22:44;100331.88;;;27.00;29.35
61906;BME280;47863;55.766;37.672;2023-04-05T09:25:12;100319.91;;;26.89;30.54
61906;BME280;47863;55.766;37.672;2023-04-05T09:27:56;100332.94;;;27.21;30.81
61906;BME280;47863;55.766;37.672;2023-04-05T09:30:22;100335.91;;;27.69;30.48
61906;BME280;47863;55.766;37.672;2023-04-05T09:32:52;100330.28;;;28.18;29.10
61906;BME280;47863;55.766;37.672;2023-04-05T09:35:39;100325.09;;;28.70;27.17
61906;BME280;47863;55.766;37.672;2023-04-05T09:38:05;100331.63;;;29.16;29.11
61906;BME280;47863;55.766;37.672;2023-04-05T09:40:45;100325.09;;;29.74;27.62
61906;BME280;47863;55.766;37.672;2023-04-05T09:43:12;100326.22;;;30.14;28.04
61906;BME280;47863;55.766;37.672;2023-04-05T09:45:40;100334.47;;;30.34;27.55
61906;BME280;47863;55.766;37.672;2023-04-05T09:48:07;100306.56;;;30.20;27.85
61906;BME280;47863;55.766;37.672;2023-04-05T09:50:33;100324.22;;;30.50;27.61
61906;BME280;47863;55.766;37.672;2023-04-05T09:53:11;100322.75;;;30.73;26.34
61906;BME280;47863;55.766;37.672;2023-04-05T09:55:45;100316.66;;;31.31;26.15
61906;BME280;47863;55.766;37.672;2023-04-05T09:58:12;100331.75;;;32.23;25.17
61906;BME280;47863;55.766;37.672;2023-04-05T10:00:47;100328.31;;;33.04;24.37
61906;BME280;47863;55.766;37.672;2023-04-05T10:03:18;100327.13;;;33.86;24.69
61906;BME280;47863;55.766;37.672;2023-04-05T10:05:44;100315.09;;;34.51;23.41
61906;BME280;47863;55.766;37.672;2023-04-05T10:08:09;100319.81;;;35.20;23.15
61906;BME280;47863;55.766;37.672;2023-04-05T10:10:45;100323.88;;;36.04;22.23
61906;BME280;47863;55.766;37.672;2023-04-05T10:13:11;100312.34;;;36.50;21.95
61906;BME280;47863;55.766;37.672;2023-04-05T10:15:37;100310.34;;;37.00;21.62
61906;BME280;47863;55.766;37.672;2023-04-05T10:18:09;100309.06;;;37.49;19.95
61906;BME280;47863;55.766;37.672;2023-04-05T10:20:38;100311.84;;;37.76;21.03
61906;BME280;47863;55.766;37.672;2023-04-05T10:23:12;100311.03;;;37.84;20.17
61906;BME280;47863;55.766;37.672;2023-04-05T10:28:26;100322.03;;;37.89;19.56
61906;BME280;47863;55.766;37.672;2023-04-05T10:33:44;100316.81;;;37.70;19.82
61906;BME280;47863;55.766;37.672;2023-04-05T10:39:02;100305.53;;;36.65;19.51
61906;BME280;47863;55.766;37.672;2023-04-05T10:42:04;100314.91;;;36.38;19.68
61906;BME280;47863;55.766;37.672;2023-04-05T10:44:33;100309.13;;;36.03;20.71
61906;BME280;47863;55.766;37.672;2023-04-05T10:47:01;100319.63;;;35.39;20.52
61906;BME280;47863;55.766;37.672;2023-04-05T10:49:31;100317.34;;;35.04;20.54
61906;BME280;47863;55.766;37.672;2023-04-05T10:51:59;100315.56;;;34.72;20.23
61906;BME280;47863;55.766;37.672;2023-04-05T10:54:26;100305.72;;;34.47;20.81
61906;BME280;47863;55.766;37.672;2023-04-05T10:56:52;100304.59;;;34.48;20.82
61906;BME280;47863;55.766;37.672;2023-04-05T10:59:19;100321.72;;;34.69;20.17
61906;BME280;47863;55.766;37.672;2023-04-05T11:01:47;100314.72;;;34.71;19.83
61906;BME280;47863;55.766;37.672;2023-04-05T11:04:16;100303.75;;;34.89;20.02
61906;BME280;47863;55.766;37.672;2023-04-05T11:06:42;100313.63;;;35.09;20.13
61906;BME280;47863;55.766;37.672;2023-04-05T11:09:15;100316.91;;;35.11;18.52
61906;BME280;47863;55.766;37.672;2023-04-05T11:11:45;100306.34;;;34.44;19.94
61906;BME280;47863;55.766;37.672;2023-04-05T11:14:38;100309.09;;;34.16;20.01
61906;BME280;47863;55.766;37.672;2023-04-05T11:17:27;100304.41;;;33.65;19.36
61906;BME280;47863;55.766;37.672;2023-04-05T11:20:04;100287.78;;;32.65;21.23
61906;BME280;47863;55.766;37.672;2023-04-05T11:22:30;100314.81;;;31.61;21.85
61906;BME280;47863;55.766;37.672;2023-04-05T11:25:01;100315.13;;;31.10;22.17
61906;BME280;47863;55.766;37.672;2023-04-05T11:27:31;100315.44;;;31.03;21.96
61906;BME280;47863;55.766;37.672;2023-04-05T11:29:58;100300.19;;;31.11;21.98
61906;BME280;47863;55.766;37.672;2023-04-05T11:32:37;100296.31;;;31.12;21.64
61906;BME280;47863;55.766;37.672;2023-04-05T11:35:06;100304.72;;;30.86;21.87
61906;BME280;47863;55.766;37.672;2023-04-05T11:38:20;100296.25;;;30.67;21.96
61906;BME280;47863;55.766;37.672;2023-04-05T11:40:37;100286.97;;;30.07;22.20
61906;BME280;47863;55.766;37.672;2023-04-05T11:43:08;100299.41;;;29.94;22.11
61906;BME280;47863;55.766;37.672;2023-04-05T11:45:35;100296.69;;;29.73;22.40
61906;BME280;47863;55.766;37.672;2023-04-05T11:48:09;100294.19;;;29.56;22.67
61906;BME280;47863;55.766;37.672;2023-04-05T11:50:37;100296.09;;;29.45;22.55
61906;BME280;47863;55.766;37.672;2023-04-05T11:53:13;100263.25;;;29.29;22.45
61906;BME280;47863;55.766;37.672;2023-04-05T11:55:44;100284.50;;;29.54;22.32
61906;BME280;47863;55.766;37.672;2023-04-05T11:58:21;100248.91;;;29.62;22.22
61906;BME280;47863;55.766;37.672;2023-04-05T12:01:01;100253.31;;;29.89;22.27
61906;BME280;47863;55.766;37.672;2023-04-05T12:03:28;100272.88;;;30.13;22.42
61906;BME280;47863;55.766;37.672;2023-04-05T12:05:55;100262.97;;;29.92;22.25
61906;BME280;47863;55.766;37.672;2023-04-05T12:08:21;100267.38;;;29.62;22.72
61906;BME280;47863;55.766;37.672;2023-04-05T12:13:31;100232.28;;;29.11;22.96
61906;BME280;47863;55.766;37.672;2023-04-05T12:16:04;100258.53;;;29.34;22.85
61906;BME280;47863;55.766;37.672;2023-04-05T12:18:32;100282.56;;;29.54;22.86
61906;BME280;47863;55.766;37.672;2023-04-05T12:21:00;100278.16;;;29.58;22.88
61906;BME280;47863;55.766;37.672;2023-04-05T12:23:26;100226.00;;;29.41;22.82
61906;BME280;47863;55.766;37.672;2023-04-05T12:25:53;100283.69;;;29.89;22.80
61906;BME280;47863;55.766;37.672;2023-04-05T12:28:20;100283.13;;;29.87;22.71
61906;BME280;47863;55.766;37.672;2023-04-05T12:30:55;100282.03;;;29.93;22.41
61906;BME280;47863;55.766;37.672;2023-04-05T12:33:28;100267.13;;;29.79;22.37
61906;BME280;47863;55.766;37.672;2023-04-05T12:35:53;100279.56;;;29.81;22.62
61906;BME280;47863;55.766;37.672;2023-04-05T12:38:19;100278.44;;;29.77;22.29
61906;BME280;47863;55.766;37.672;2023-04-05T12:40:45;100272.91;;;29.46;22.81
61906;BME280;47863;55.766;37.672;2023-04-05T12:43:10;100277.56;;;29.20;22.95
61906;BME280;47863;55.766;37.672;2023-04-05T12:45:37;100278.84;;;28.92;23.20
61906;BME280;47863;55.766;37.672;2023-04-05T12:48:11;100269.34;;;28.57;23.44
61906;BME280;47863;55.766;37.672;2023-04-05T12:50:44;100272.34;;;28.51;23.55
61906;BME280;47863;55.766;37.672;2023-04-05T12:53:15;100268.97;;;28.38;23.51
61906;BME280;47863;55.766;37.672;2023-04-05T12:55:52;100272.25;;;28.30;23.31
61906;BME280;47863;55.766;37.672;2023-04-05T12:58:38;100279.91;;;28.23;23.81
61906;BME280;47863;55.766;37.672;2023-04-05T13:01:04;100275.91;;;28.03;23.68
61906;BME280;47863;55.766;37.672;2023-04-05T13:03:30;100267.69;;;27.71;23.60
61906;BME280;47863;55.766;37.672;2023-04-05T13:05:55;100269.19;;;27.24;24.06
61906;BME280;47863;55.766;37.672;2023-04-05T13:08:23;100268.00;;;26.93;24.37
61906;BME280;47863;55.766;37.672;2023-04-05T13:10:49;100247.19;;;26.53;24.43